createdAt,value
2019-05-12T00:00:19.615Z,8.53
2019-05-12T00:02:48.471Z,11.83
2019-05-12T00:05:18.169Z,15.87
2019-05-12T00:07:44.438Z,12.27
2019-05-12T00:10:11.647Z,10.87
2019-05-12T00:12:38.702Z,9.47
2019-05-12T00:15:08.210Z,11.07
2019-05-12T00:17:35.227Z,10.17
2019-05-12T00:20:02.231Z,9.73
2019-05-12T00:22:34.231Z,8.93
2019-05-12T00:25:01.078Z,7.03
2019-05-12T00:27:28.441Z,9.43
2019-05-12T00:29:57.726Z,8.47
2019-05-12T00:32:24.231Z,8.23
2019-05-12T00:34:51.091Z,11.80
2019-05-12T00:37:18.490Z,7.67
2019-05-12T00:39:47.705Z,6.50
2019-05-12T00:42:14.235Z,7.57
2019-05-12T00:44:41.627Z,11.07
2019-05-12T00:47:08.742Z,12.10
2019-05-12T00:49:37.866Z,8.80
2019-05-12T00:52:05.071Z,10.40
2019-05-12T00:54:31.929Z,9.87
2019-05-12T00:56:58.816Z,8.13
2019-05-12T00:59:27.808Z,11.53
2019-05-12T01:01:54.235Z,6.67
2019-05-12T01:04:21.123Z,10.67
2019-05-12T01:06:48.608Z,9.80
2019-05-12T01:09:17.657Z,7.80
2019-05-12T01:11:44.639Z,11.00
2019-05-12T01:14:11.485Z,6.37
2019-05-12T01:16:38.813Z,7.23
2019-05-12T01:19:08.003Z,7.17
2019-05-12T01:21:34.739Z,8.60
2019-05-12T01:24:03.472Z,10.97
2019-05-12T01:26:30.403Z,10.07
2019-05-12T01:28:58.032Z,7.77
2019-05-12T01:31:28.606Z,7.43
2019-05-12T01:33:55.565Z,14.63
2019-05-12T01:36:22.297Z,11.53
2019-05-12T01:38:49.168Z,6.57
2019-05-12T01:41:17.996Z,11.13
2019-05-12T01:43:44.743Z,11.97
2019-05-12T01:46:11.586Z,9.77
2019-05-12T01:48:38.451Z,5.83
2019-05-12T01:51:05.208Z,8.13
2019-05-12T01:53:31.923Z,11.43
2019-05-12T01:55:58.768Z,8.17
2019-05-12T01:58:27.709Z,11.13
2019-05-12T02:00:54.478Z,7.77
2019-05-12T02:03:21.214Z,10.33
2019-05-12T02:05:51.283Z,8.80
2019-05-12T02:08:23.733Z,5.70
2019-05-12T02:10:53.067Z,5.83
2019-05-12T02:13:19.939Z,6.17
2019-05-12T02:15:48.602Z,9.60
2019-05-12T02:18:17.659Z,10.07
2019-05-12T02:20:44.393Z,6.77
2019-05-12T02:23:11.272Z,7.90
2019-05-12T02:25:38.372Z,6.70
2019-05-12T02:28:05.405Z,6.00
2019-05-12T02:30:32.435Z,5.67
2019-05-12T02:32:59.894Z,5.20
2019-05-12T02:35:26.888Z,6.77
2019-05-12T02:37:55.015Z,6.93
2019-05-12T02:40:24.916Z,13.00
2019-05-12T02:42:54.556Z,3.83
2019-05-12T02:45:20.606Z,4.80
2019-05-12T02:47:47.950Z,6.17
2019-05-12T02:50:19.716Z,10.27
2019-05-12T02:52:47.139Z,9.67
2019-05-12T02:55:15.020Z,7.90
2019-05-12T02:57:45.208Z,13.37
2019-05-12T03:00:15.595Z,8.10
2019-05-12T03:02:44.404Z,7.27
2019-05-12T03:05:14.869Z,6.97
2019-05-12T03:07:44.782Z,6.00
2019-05-12T03:10:14.525Z,10.60
2019-05-12T03:12:40.971Z,9.90
2019-05-12T03:15:08.240Z,9.23
2019-05-12T03:17:35.687Z,12.77
2019-05-12T03:20:04.945Z,7.13
2019-05-12T03:22:35.026Z,6.00
2019-05-12T03:25:11.427Z,8.47
2019-05-12T03:27:29.351Z,8.20
2019-05-12T03:29:56.346Z,9.80
2019-05-12T03:32:27.634Z,8.10
2019-05-12T03:34:57.362Z,7.83
2019-05-12T03:37:20.977Z,10.67
2019-05-12T03:39:48.005Z,6.73
2019-05-12T03:42:14.831Z,8.03
2019-05-12T03:44:44.345Z,13.43
2019-05-12T03:47:10.382Z,12.43
2019-05-12T03:49:37.317Z,8.13
2019-05-12T03:52:05.196Z,10.97
2019-05-12T03:54:34.943Z,13.50
2019-05-12T03:57:04.302Z,10.53
2019-05-12T03:59:29.807Z,5.67
2019-05-12T04:01:56.648Z,10.13
2019-05-12T04:04:24.478Z,10.30
2019-05-12T04:06:54.287Z,6.03
2019-05-12T04:09:20.261Z,5.27
2019-05-12T04:11:47.039Z,7.40
2019-05-12T04:14:14.756Z,4.00
2019-05-12T04:16:44.891Z,10.60
2019-05-12T04:19:10.659Z,6.20
2019-05-12T04:21:37.422Z,5.83
2019-05-12T04:24:05.762Z,9.00
2019-05-12T04:26:36.302Z,4.13
2019-05-12T04:29:04.847Z,10.63
2019-05-12T04:31:30.719Z,9.97
2019-05-12T04:33:57.553Z,4.57
2019-05-12T04:36:24.984Z,6.10
2019-05-12T04:38:55.241Z,7.53
2019-05-12T04:41:20.928Z,7.50
2019-05-12T04:43:47.664Z,9.77
2019-05-12T04:46:14.753Z,7.63
2019-05-12T04:48:45.013Z,7.37
2019-05-12T04:51:10.468Z,8.97
2019-05-12T04:53:37.207Z,6.37
2019-05-12T04:56:14.663Z,10.10
2019-05-12T04:58:35.049Z,8.00
2019-05-12T05:01:01.786Z,9.00
2019-05-12T05:03:28.527Z,11.03
2019-05-12T05:05:55.269Z,5.63
2019-05-12T05:08:24.319Z,9.60
2019-05-12T05:10:50.848Z,6.00
2019-05-12T05:13:19.023Z,8.07
2019-05-12T05:15:45.923Z,6.67
2019-05-12T05:18:13.393Z,7.80
2019-05-12T05:20:40.443Z,7.40
2019-05-12T05:23:07.243Z,8.17
2019-05-12T05:25:34.360Z,5.57
2019-05-12T05:28:03.720Z,7.37
2019-05-12T05:30:30.067Z,9.17
2019-05-12T05:32:56.942Z,7.30
2019-05-12T05:35:23.961Z,8.23
2019-05-12T05:37:51.247Z,5.50
2019-05-12T05:40:19.742Z,7.53
2019-05-12T05:42:46.684Z,6.77
2019-05-12T05:45:19.675Z,7.33
2019-05-12T05:47:44.304Z,12.77
2019-05-12T05:50:13.376Z,6.20
2019-05-12T05:52:39.726Z,7.33
2019-05-12T05:55:14.597Z,8.40
2019-05-12T05:57:35.599Z,5.40
2019-05-12T06:00:07.138Z,8.13
2019-05-12T06:02:39.710Z,12.67
2019-05-12T06:05:00.695Z,7.00
2019-05-12T06:07:34.912Z,5.57
2019-05-12T06:09:56.267Z,5.33
2019-05-12T06:12:23.986Z,9.63
2019-05-12T06:14:57.674Z,7.97
2019-05-12T06:17:19.661Z,7.17
2019-05-12T06:19:46.653Z,7.77
2019-05-12T06:22:15.449Z,7.67
2019-05-12T06:24:44.171Z,8.03
2019-05-12T06:27:16.074Z,8.33
2019-05-12T06:29:40.053Z,5.33
2019-05-12T06:32:10.853Z,3.77
2019-05-12T06:34:35.755Z,5.83
2019-05-12T06:37:11.684Z,4.37
2019-05-12T06:39:31.218Z,5.13
2019-05-12T06:42:08.636Z,7.67
2019-05-12T06:44:26.895Z,4.87
2019-05-12T06:47:02.252Z,4.93
2019-05-12T06:49:24.643Z,4.83
2019-05-12T06:51:55.317Z,9.90
2019-05-12T06:54:19.831Z,6.97
2019-05-12T06:56:50.158Z,7.90
2019-05-12T06:59:15.235Z,5.67
2019-05-12T07:01:44.758Z,6.67
2019-05-12T07:04:11.354Z,6.77
2019-05-12T07:06:38.259Z,5.03
2019-05-12T07:09:09.966Z,4.73
2019-05-12T07:11:44.977Z,6.57
2019-05-12T07:14:12.900Z,9.20
2019-05-12T07:16:34.107Z,9.23
2019-05-12T07:19:00.993Z,9.70
2019-05-12T07:21:29.175Z,7.50
2019-05-12T07:24:00.594Z,6.37
2019-05-12T07:26:24.883Z,8.67
2019-05-12T07:28:53.940Z,8.13
2019-05-12T07:31:20.707Z,7.03
2019-05-12T07:33:47.451Z,7.47
2019-05-12T07:36:15.718Z,9.97
2019-05-12T07:38:44.602Z,8.60
2019-05-12T07:41:14.383Z,7.97
2019-05-12T07:43:44.349Z,6.77
2019-05-12T07:46:13.381Z,11.57
2019-05-12T07:48:45.817Z,8.67
2019-05-12T07:51:09.299Z,5.60
2019-05-12T07:53:36.063Z,7.53
2019-05-12T07:56:04.143Z,7.57
2019-05-12T07:58:33.265Z,8.93
2019-05-12T08:01:07.697Z,8.07
2019-05-12T08:03:28.747Z,6.67
2019-05-12T08:05:57.437Z,7.10
2019-05-12T08:08:24.447Z,6.43
2019-05-12T08:10:53.536Z,4.83
2019-05-12T08:13:20.025Z,5.13
2019-05-12T08:15:50.246Z,4.27
2019-05-12T08:18:15.955Z,4.60
2019-05-12T08:20:43.527Z,5.17
2019-05-12T08:23:10.792Z,5.77
2019-05-12T08:25:37.696Z,3.77
2019-05-12T08:28:14.699Z,5.43
2019-05-12T08:30:40.174Z,4.53
2019-05-12T08:33:09.629Z,4.43
2019-05-12T08:35:37.487Z,5.27
2019-05-12T08:38:03.830Z,4.33
2019-05-12T08:40:30.463Z,5.47
2019-05-12T08:42:59.512Z,3.70
2019-05-12T08:45:33.746Z,6.63
2019-05-12T08:47:54.920Z,6.50
2019-05-12T08:50:23.113Z,7.97
2019-05-12T08:52:50.803Z,3.75
2019-05-12T08:55:25.184Z,6.35
2019-05-12T08:57:49.356Z,6.93
2019-05-12T09:00:23.693Z,6.27
2019-05-12T09:02:50.725Z,6.57
2019-05-12T09:05:17.871Z,6.13
2019-05-12T09:07:45.507Z,7.90
2019-05-12T09:10:14.279Z,5.07
2019-05-12T09:12:41.299Z,8.10
2019-05-12T09:15:08.568Z,4.07
2019-05-12T09:17:37.615Z,5.40
2019-05-12T09:20:08.363Z,4.70
2019-05-12T09:22:34.322Z,3.27
2019-05-12T09:25:06.231Z,5.77
2019-05-12T09:27:30.079Z,5.85
2019-05-12T09:29:59.194Z,3.90
2019-05-12T09:32:25.831Z,5.75
2019-05-12T09:34:57.931Z,3.05
2019-05-12T09:37:23.965Z,4.55
2019-05-12T09:39:51.854Z,7.00
2019-05-12T09:42:24.452Z,5.80
2019-05-12T09:44:48.096Z,8.83
2019-05-12T09:47:23.110Z,4.30
2019-05-12T09:49:44.398Z,5.78
2019-05-12T09:52:13.947Z,5.05
2019-05-12T09:54:41.016Z,4.57
2019-05-12T09:57:08.035Z,6.60
2019-05-12T09:59:34.808Z,5.07
2019-05-12T10:02:03.664Z,7.07
2019-05-12T10:04:30.474Z,6.50
2019-05-12T10:06:57.313Z,6.83
2019-05-12T10:09:24.516Z,8.23
2019-05-12T10:12:00.305Z,5.67
2019-05-12T10:14:20.544Z,6.47
2019-05-12T10:16:49.735Z,6.80
2019-05-12T10:19:16.139Z,7.90
2019-05-12T10:21:44.022Z,9.97
2019-05-12T10:24:10.996Z,3.20
2019-05-12T10:26:41.194Z,7.30
2019-05-12T10:29:16.477Z,3.83
2019-05-12T10:31:39.132Z,6.80
2019-05-12T10:34:19.625Z,4.80
2019-05-12T10:36:49.189Z,3.63
2019-05-12T10:39:16.258Z,4.13
2019-05-12T10:41:43.803Z,6.00
2019-05-12T10:44:10.781Z,3.05
2019-05-12T10:46:37.640Z,3.55
2019-05-12T10:49:04.631Z,4.65
2019-05-12T10:51:31.617Z,3.92
2019-05-12T10:54:07.718Z,3.30
2019-05-12T10:56:27.267Z,8.68
2019-05-12T10:58:54.211Z,3.87
2019-05-12T11:01:21.195Z,4.33
2019-05-12T11:03:50.947Z,4.28
2019-05-12T11:06:16.743Z,4.22
2019-05-12T11:08:47.281Z,2.92
2019-05-12T11:11:13.598Z,3.60
2019-05-12T11:13:48.274Z,3.15
2019-05-12T11:16:09.332Z,3.87
2019-05-12T11:18:36.351Z,5.40
2019-05-12T11:21:03.714Z,3.33
2019-05-12T11:23:30.603Z,5.37
2019-05-12T11:25:57.312Z,4.40
2019-05-12T11:28:24.568Z,4.40
2019-05-12T11:30:51.799Z,3.02
2019-05-12T11:33:18.959Z,4.28
2019-05-12T11:35:46.404Z,2.08
2019-05-12T11:38:13.623Z,2.10
2019-05-12T11:40:40.630Z,4.37
2019-05-12T11:43:07.531Z,3.75
2019-05-12T11:45:34.491Z,3.90
2019-05-12T11:48:07.982Z,2.67
2019-05-12T11:50:30.046Z,4.25
2019-05-12T11:52:56.914Z,3.55
2019-05-12T11:55:29.799Z,5.30
2019-05-12T11:57:54.494Z,7.25
2019-05-12T12:00:24.156Z,4.08
2019-05-12T12:02:51.147Z,2.80
2019-05-12T12:05:18.007Z,2.00
2019-05-12T12:07:50.754Z,5.50
2019-05-12T12:10:14.261Z,3.17
2019-05-12T12:12:45.302Z,2.60
2019-05-12T12:15:10.583Z,2.80
2019-05-12T12:17:37.299Z,2.95
2019-05-12T12:20:04.513Z,3.02
2019-05-12T12:22:34.499Z,3.10
2019-05-12T12:25:04.671Z,1.98
2019-05-12T12:27:30.099Z,1.90
2019-05-12T12:29:56.872Z,2.05
2019-05-12T12:32:23.702Z,2.17
2019-05-12T12:34:50.539Z,1.92
2019-05-12T12:37:18.975Z,4.45
2019-05-12T12:39:46.191Z,2.12
2019-05-12T12:42:14.045Z,2.40
2019-05-12T12:44:41.102Z,3.45
2019-05-12T12:47:07.847Z,3.52
2019-05-12T12:49:34.703Z,4.62
2019-05-12T12:52:03.291Z,3.20
2019-05-12T12:54:30.399Z,2.87
2019-05-12T12:57:00.068Z,6.83
2019-05-12T12:59:25.927Z,5.37
2019-05-12T13:01:52.675Z,4.23
2019-05-12T13:04:19.547Z,3.07
2019-05-12T13:06:46.452Z,2.97
2019-05-12T13:09:22.631Z,1.53
2019-05-12T13:11:44.283Z,1.93
2019-05-12T13:14:10.724Z,2.73
2019-05-12T13:16:37.543Z,3.50
2019-05-12T13:19:12.517Z,2.87
2019-05-12T13:21:33.673Z,6.90
2019-05-12T13:24:03.414Z,1.93
2019-05-12T13:26:29.539Z,2.60
2019-05-12T13:28:56.391Z,2.30
2019-05-12T13:31:24.327Z,2.20
2019-05-12T13:33:54.928Z,1.83
2019-05-12T13:36:20.429Z,2.80
2019-05-12T13:38:47.146Z,2.13
2019-05-12T13:41:16.010Z,1.63
2019-05-12T13:43:42.833Z,3.33
2019-05-12T13:46:09.580Z,5.50
2019-05-12T13:48:36.308Z,6.40
2019-05-12T13:51:08.357Z,3.60
2019-05-12T13:53:33.476Z,3.47
2019-05-12T13:56:00.558Z,2.27
2019-05-12T13:58:33.503Z,2.63
2019-05-12T14:01:17.017Z,1.63
2019-05-12T14:03:27.813Z,3.97
2019-05-12T14:05:55.236Z,2.23
2019-05-12T14:08:23.819Z,3.07
2019-05-12T14:10:59.240Z,4.03
2019-05-12T14:13:19.855Z,4.53
2019-05-12T14:15:46.784Z,5.30
2019-05-12T14:18:18.499Z,2.47
2019-05-12T14:20:44.939Z,3.00
2019-05-12T14:23:11.059Z,3.50
2019-05-12T14:25:37.807Z,2.10
2019-05-12T14:28:08.084Z,1.47
2019-05-12T14:30:33.718Z,2.50
2019-05-12T14:33:00.731Z,3.87
2019-05-12T14:35:32.723Z,1.73
2019-05-12T14:37:58.145Z,3.47
2019-05-12T14:40:31.323Z,3.73
2019-05-12T14:42:58.281Z,1.40
2019-05-12T14:45:29.827Z,5.03
2019-05-12T14:47:59.921Z,4.20
2019-05-12T14:50:29.784Z,2.83
2019-05-12T14:52:59.750Z,4.00
2019-05-12T14:55:30.264Z,2.10
2019-05-12T14:57:58.514Z,2.43
2019-05-12T15:00:26.685Z,4.67
2019-05-12T15:02:59.161Z,0.67
2019-05-12T15:05:27.428Z,5.67
2019-05-12T15:07:58.513Z,2.13
2019-05-12T15:10:25.630Z,1.63
2019-05-12T15:12:54.724Z,3.83
2019-05-12T15:15:24.239Z,4.10
2019-05-12T15:17:56.672Z,3.57
2019-05-12T15:20:24.101Z,1.10
2019-05-12T15:22:55.334Z,1.40
2019-05-12T15:25:29.438Z,6.13
2019-05-12T15:27:55.969Z,2.70
2019-05-12T15:30:26.658Z,0.73
2019-05-12T15:32:55.810Z,2.10
2019-05-12T15:35:24.126Z,4.33
2019-05-12T15:37:54.874Z,2.30
2019-05-12T15:40:20.628Z,0.73
2019-05-12T15:42:47.349Z,2.50
2019-05-12T15:45:16.512Z,1.13
2019-05-12T15:47:44.532Z,2.93
2019-05-12T15:50:14.644Z,6.30
2019-05-12T15:52:44.902Z,4.40
2019-05-12T15:55:10.611Z,2.73
2019-05-12T15:57:37.503Z,2.63
2019-05-12T16:00:05.076Z,1.97
2019-05-12T16:02:34.013Z,4.47
2019-05-12T16:05:00.873Z,3.30
2019-05-12T16:07:29.590Z,1.67
2019-05-12T16:09:57.889Z,2.17
2019-05-12T16:12:26.953Z,2.43
2019-05-12T16:14:54.101Z,1.50
2019-05-12T16:17:25.036Z,2.97
2019-05-12T16:19:50.173Z,2.00
2019-05-12T16:22:17.250Z,3.70
2019-05-12T16:24:48.941Z,2.83
2019-05-12T16:27:13.998Z,3.97
2019-05-12T16:29:45.587Z,1.03
2019-05-12T16:32:23.877Z,2.10
2019-05-12T16:34:44.936Z,2.43
2019-05-12T16:37:08.760Z,3.20
2019-05-12T16:39:37.065Z,3.50
2019-05-12T16:42:06.208Z,1.33
2019-05-12T16:44:34.996Z,3.10
2019-05-12T16:47:04.144Z,4.57
2019-05-12T16:49:33.329Z,2.73
2019-05-12T16:51:59.471Z,2.40
2019-05-12T16:54:26.236Z,2.07
2019-05-12T16:56:53.736Z,6.03
2019-05-12T16:59:24.130Z,3.50
2019-05-12T17:01:49.830Z,2.40
2019-05-12T17:04:16.831Z,2.03
2019-05-12T17:06:46.959Z,1.90
2019-05-12T17:09:13.500Z,1.50
2019-05-12T17:11:47.323Z,2.30
2019-05-12T17:14:09.276Z,1.97
2019-05-12T17:16:42.008Z,4.40
2019-05-12T17:19:10.001Z,2.30
2019-05-12T17:21:33.858Z,2.33
2019-05-12T17:24:00.823Z,1.90
2019-05-12T17:26:27.807Z,3.77
2019-05-12T17:28:54.783Z,2.97
2019-05-12T17:31:21.650Z,2.00
2019-05-12T17:33:48.487Z,3.50
2019-05-12T17:36:17.898Z,1.80
2019-05-12T17:38:44.281Z,2.30
2019-05-12T17:41:14.579Z,3.37
2019-05-12T17:43:54.782Z,4.20
2019-05-12T17:46:11.755Z,1.67
2019-05-12T17:48:42.661Z,3.80
2019-05-12T17:51:06.324Z,1.20
2019-05-12T17:53:36.202Z,1.90
2019-05-12T17:56:04.574Z,3.70
2019-05-12T17:58:36.648Z,0.90
2019-05-12T18:00:59.435Z,3.97
2019-05-12T18:03:26.295Z,1.57
2019-05-12T18:05:53.542Z,1.23
2019-05-12T18:08:23.960Z,1.27
2019-05-12T18:10:49.350Z,1.80
2019-05-12T18:13:22.980Z,3.43
2019-05-12T18:15:45.184Z,1.00
2019-05-12T18:18:15.353Z,2.97
2019-05-12T18:20:43.980Z,1.40
2019-05-12T18:23:09.468Z,4.27
2019-05-12T18:25:36.867Z,1.27
2019-05-12T18:28:04.433Z,3.47
2019-05-12T18:30:31.514Z,3.10
2019-05-12T18:33:04.441Z,2.33
2019-05-12T18:35:27.188Z,1.47
2019-05-12T18:37:54.189Z,3.30
2019-05-12T18:40:24.004Z,2.40
2019-05-12T18:42:50.035Z,1.20
2019-05-12T18:45:18.304Z,1.40
2019-05-12T18:47:45.435Z,5.07
2019-05-12T18:50:14.061Z,1.57
2019-05-12T18:52:43.673Z,1.37
2019-05-12T18:55:10.446Z,2.43
2019-05-12T18:57:39.213Z,2.47
2019-05-12T19:00:14.043Z,1.73
2019-05-12T19:02:41.058Z,1.57
2019-05-12T19:05:15.326Z,2.60
2019-05-12T19:07:40.024Z,1.83
2019-05-12T19:10:06.275Z,2.70
2019-05-12T19:12:35.507Z,1.73
2019-05-12T19:15:04.470Z,1.57
2019-05-12T19:17:31.091Z,1.33
2019-05-12T19:20:00.037Z,2.93
2019-05-12T19:22:26.949Z,2.67
2019-05-12T19:24:56.748Z,3.70
2019-05-12T19:27:24.104Z,4.10
2019-05-12T19:29:51.621Z,1.10
2019-05-12T19:32:18.493Z,4.60
2019-05-12T19:34:46.288Z,1.17
2019-05-12T19:37:14.339Z,2.77
2019-05-12T19:39:41.285Z,2.50
2019-05-12T19:42:10.591Z,1.53
2019-05-12T19:44:36.969Z,3.87
2019-05-12T19:47:04.004Z,3.63
2019-05-12T19:49:45.976Z,1.83
2019-05-12T19:51:59.646Z,2.50
2019-05-12T19:54:30.210Z,3.07
2019-05-12T19:56:55.345Z,2.63
2019-05-12T19:59:23.650Z,2.10
2019-05-12T20:01:50.623Z,1.20
2019-05-12T20:04:29.739Z,1.73
2019-05-12T20:06:46.360Z,1.97
2019-05-12T20:09:14.612Z,1.27
2019-05-12T20:11:41.823Z,2.43
2019-05-12T20:14:10.043Z,1.83
2019-05-12T20:16:37.466Z,3.33
2019-05-12T20:19:04.529Z,2.73
2019-05-12T20:21:31.413Z,2.40
2019-05-12T20:23:58.263Z,4.00
2019-05-12T20:26:25.260Z,3.03
2019-05-12T20:28:55.025Z,4.57
2019-05-12T20:31:26.317Z,2.43
2019-05-12T20:33:57.409Z,3.20
2019-05-12T20:36:20.697Z,1.97
2019-05-12T20:38:48.323Z,2.63
2019-05-12T20:41:20.228Z,1.73
2019-05-12T20:43:50.045Z,2.97
2019-05-12T20:46:21.800Z,4.17
2019-05-12T20:48:45.615Z,1.93
2019-05-12T20:51:15.409Z,2.60
2019-05-12T20:53:43.405Z,5.27
2019-05-12T20:56:12.073Z,3.67
2019-05-12T20:58:43.673Z,3.97
2019-05-12T21:01:08.072Z,3.50
2019-05-12T21:03:34.963Z,3.23
2019-05-12T21:06:04.284Z,3.73
2019-05-12T21:08:30.523Z,3.70
2019-05-12T21:10:57.387Z,4.40
2019-05-12T21:13:27.138Z,4.17
2019-05-12T21:15:53.927Z,6.33
2019-05-12T21:18:21.132Z,2.50
2019-05-12T21:20:52.164Z,2.43
2019-05-12T21:23:16.751Z,4.43
2019-05-12T21:25:51.953Z,2.57
2019-05-12T21:28:14.690Z,2.20
2019-05-12T21:30:42.379Z,1.80
2019-05-12T21:33:09.685Z,3.87
2019-05-12T21:35:40.964Z,3.00
2019-05-12T21:38:05.312Z,2.93
2019-05-12T21:40:32.211Z,3.00
2019-05-12T21:42:58.951Z,2.33
2019-05-12T21:45:30.748Z,3.13
2019-05-12T21:47:56.559Z,2.37
2019-05-12T21:50:24.137Z,3.33
2019-05-12T21:52:56.869Z,3.80
2019-05-12T21:55:21.980Z,1.50
2019-05-12T21:57:49.727Z,3.03
2019-05-12T22:00:25.159Z,1.93
2019-05-12T22:02:53.424Z,2.57
2019-05-12T22:05:37.347Z,1.87
2019-05-12T22:07:49.959Z,3.30
2019-05-12T22:10:25.259Z,2.47
2019-05-12T22:12:45.720Z,2.87
2019-05-12T22:15:24.819Z,2.17
2019-05-12T22:18:00.811Z,1.90
2019-05-12T22:20:29.317Z,2.17
2019-05-12T22:23:00.492Z,2.37
2019-05-12T22:25:25.107Z,2.83
2019-05-12T22:27:53.888Z,2.17
2019-05-12T22:30:21.063Z,1.73
2019-05-12T22:32:47.939Z,4.37
2019-05-12T22:35:21.467Z,2.60
2019-05-12T22:37:45.051Z,3.90
2019-05-12T22:40:15.128Z,1.93
2019-05-12T22:42:40.976Z,1.07
2019-05-12T22:45:08.791Z,2.87
2019-05-12T22:47:35.536Z,4.97
2019-05-12T22:50:04.208Z,4.60
2019-05-12T22:52:33.750Z,4.00
2019-05-12T22:55:00.280Z,1.97
2019-05-12T22:57:29.221Z,1.60
2019-05-12T22:59:55.984Z,1.83
2019-05-12T23:02:25.290Z,3.30
2019-05-12T23:04:51.730Z,3.47
2019-05-12T23:07:19.072Z,3.33
2019-05-12T23:09:47.231Z,4.97
2019-05-12T23:12:18.163Z,2.63
2019-05-12T23:14:44.419Z,4.63
2019-05-12T23:17:13.672Z,1.90
2019-05-12T23:19:45.387Z,3.87
2019-05-12T23:22:09.025Z,2.70
2019-05-12T23:24:40.520Z,4.50
2019-05-12T23:27:05.920Z,3.23
2019-05-12T23:29:33.906Z,3.30
2019-05-12T23:32:07.338Z,1.60
2019-05-12T23:34:29.652Z,2.40
2019-05-12T23:36:59.862Z,1.90
2019-05-12T23:39:25.195Z,2.93
2019-05-12T23:41:53.810Z,2.97
2019-05-12T23:44:20.792Z,2.53
2019-05-12T23:46:47.763Z,3.43
2019-05-12T23:49:14.535Z,2.83
2019-05-12T23:51:43.736Z,4.50
2019-05-12T23:54:10.239Z,5.70
2019-05-12T23:56:37.219Z,4.03
2019-05-12T23:59:04.546Z,3.43
